Terminal Aerodrome Forecast
Issued by NWS Pocatello, ID

Home | Current Version | Previous Version | Text Only | Print | Product List | Glossary On
Versions: 1 2 3 4 5 6 7 8 9 10 11 12
108
FTUS45 KPIH 050520
TAFBYI
TAF
KBYI 050520Z 0506/0606 13005KT P6SM BKN200
     FM052000 16010KT P6SM SCT080 BKN200
     FM060400 10007KT P6SM VCTS SCT060CB OVC150=

USA.gov is the U.S. government's official web portal to all federal, state and local government web resources and services.